createdAt,value
2018-11-28T00:00:36.372Z,2.73
2018-11-28T00:05:39.133Z,2.72
2018-11-28T00:10:47.872Z,2.71
2018-11-28T00:15:50.509Z,2.69
2018-11-28T00:20:53.165Z,2.68
2018-11-28T00:25:58.820Z,2.69
2018-11-28T00:30:58.390Z,2.70
2018-11-28T00:36:01.172Z,2.70
2018-11-28T00:41:03.916Z,2.69
2018-11-28T00:46:06.655Z,2.68
2018-11-28T00:51:10.085Z,2.65
2018-11-28T00:56:12.663Z,2.66
2018-11-28T01:01:15.292Z,2.67
2018-11-28T01:06:17.873Z,2.68
2018-11-28T01:11:20.490Z,2.69
2018-11-28T01:16:23.104Z,2.70
2018-11-28T01:21:25.700Z,2.70
2018-11-28T01:26:28.301Z,2.68
2018-11-28T01:31:30.917Z,2.66
2018-11-28T01:36:33.510Z,2.66
2018-11-28T01:41:36.080Z,2.65
2018-11-28T01:46:38.685Z,2.64
2018-11-28T01:51:41.300Z,2.64
2018-11-28T01:56:43.900Z,2.62
2018-11-28T02:01:46.581Z,2.63
2018-11-28T02:06:49.168Z,2.62
2018-11-28T02:11:51.739Z,2.63
2018-11-28T02:16:54.594Z,2.66
2018-11-28T02:21:57.369Z,2.67
2018-11-28T02:26:59.972Z,2.70
2018-11-28T02:32:02.558Z,2.70
2018-11-28T02:37:05.361Z,2.73
2018-11-28T02:42:07.944Z,2.73
2018-11-28T02:47:10.650Z,2.74
2018-11-28T02:52:13.393Z,2.73
2018-11-28T02:57:16.002Z,2.69
2018-11-28T03:02:18.606Z,2.64
2018-11-28T03:07:21.193Z,2.58
2018-11-28T03:12:23.814Z,2.50
2018-11-28T03:17:26.515Z,2.42
2018-11-28T03:22:29.128Z,2.39
2018-11-28T03:27:31.748Z,2.35
2018-11-28T03:32:34.320Z,2.30
2018-11-28T03:37:36.973Z,2.25
2018-11-28T03:42:40.210Z,2.17
2018-11-28T03:47:43.968Z,2.12
2018-11-28T03:52:46.641Z,2.08
2018-11-28T03:57:49.238Z,1.98
2018-11-28T04:02:51.816Z,1.89
2018-11-28T04:07:54.488Z,1.82
2018-11-28T04:12:57.080Z,1.74
2018-11-28T04:17:59.651Z,1.67
2018-11-28T04:23:02.334Z,1.63
2018-11-28T04:28:05.241Z,1.59
2018-11-28T04:33:07.822Z,1.52
2018-11-28T04:38:10.392Z,1.47
2018-11-28T04:43:12.960Z,1.42
2018-11-28T04:48:15.563Z,1.33
2018-11-28T04:53:18.217Z,1.26
2018-11-28T04:58:20.820Z,1.23
2018-11-28T05:03:23.434Z,1.20
2018-11-28T05:08:26.038Z,1.19
2018-11-28T05:13:28.761Z,1.18
2018-11-28T05:18:31.417Z,1.16
2018-11-28T05:23:34.059Z,1.12
2018-11-28T05:28:36.726Z,1.11
2018-11-28T05:33:39.364Z,1.07
2018-11-28T05:38:41.956Z,1.02
2018-11-28T05:43:44.621Z,0.98
2018-11-28T05:48:47.260Z,0.93
2018-11-28T05:53:49.928Z,0.91
2018-11-28T05:58:52.800Z,0.87
2018-11-28T06:03:55.405Z,0.84
2018-11-28T06:08:58.040Z,0.83
2018-11-28T06:14:00.660Z,0.82
2018-11-28T06:19:03.415Z,0.82
2018-11-28T06:24:06.056Z,0.79
2018-11-28T06:29:09.607Z,0.79
2018-11-28T06:34:12.537Z,0.78
2018-11-28T06:39:15.219Z,0.77
2018-11-28T06:44:17.852Z,0.73
2018-11-28T06:49:20.512Z,0.72
2018-11-28T06:54:23.109Z,0.68
2018-11-28T06:59:25.704Z,0.67
2018-11-28T07:04:28.328Z,0.65
2018-11-28T07:09:31.024Z,0.64
2018-11-28T07:14:33.685Z,0.65
2018-11-28T07:19:36.398Z,0.65
2018-11-28T07:24:39.031Z,0.66
2018-11-28T07:29:41.742Z,0.67
2018-11-28T07:34:44.372Z,0.67
2018-11-28T07:39:46.973Z,0.71
2018-11-28T07:44:49.713Z,0.73
2018-11-28T07:49:52.480Z,0.77
2018-11-28T07:54:55.256Z,0.86
2018-11-28T07:59:58.016Z,0.93
2018-11-28T08:05:00.644Z,0.99
2018-11-28T08:10:03.623Z,1.04
2018-11-28T08:15:07.415Z,1.07
2018-11-28T08:20:10.053Z,1.13
2018-11-28T08:25:14.961Z,1.24
2018-11-28T08:30:24.219Z,1.41
2018-11-28T08:35:26.876Z,1.72
2018-11-28T08:40:29.562Z,2.08
2018-11-28T08:45:32.233Z,2.47
2018-11-28T08:50:36.850Z,2.66
2018-11-28T08:55:39.545Z,2.93
2018-11-28T09:00:42.146Z,3.22
2018-11-28T09:05:44.748Z,3.66
2018-11-28T09:10:47.382Z,4.08
2018-11-28T09:15:50.017Z,4.41
2018-11-28T09:20:52.746Z,4.54
2018-11-28T09:25:55.529Z,5.01
2018-11-28T09:30:58.179Z,5.53
2018-11-28T09:36:00.785Z,5.69
2018-11-28T09:41:03.401Z,6.09
2018-11-28T09:46:06.137Z,6.35
2018-11-28T09:51:08.810Z,6.57
2018-11-28T09:56:11.451Z,6.57
2018-11-28T10:01:14.077Z,6.65
2018-11-28T10:06:16.681Z,6.78
2018-11-28T10:11:19.309Z,7.17
2018-11-28T10:16:22.005Z,7.20
2018-11-28T10:21:24.600Z,7.28
2018-11-28T10:26:27.204Z,7.14
2018-11-28T10:31:29.833Z,7.16
2018-11-28T10:36:32.636Z,7.04
2018-11-28T10:41:35.284Z,6.69
2018-11-28T10:46:38.646Z,5.53
2018-11-28T10:51:41.310Z,5.06
2018-11-28T10:56:43.929Z,4.77
2018-11-28T11:01:51.748Z,4.59
2018-11-28T11:07:00.241Z,4.60
2018-11-28T11:12:05.228Z,4.56
2018-11-28T11:17:07.933Z,4.42
2018-11-28T11:22:10.587Z,4.40
2018-11-28T11:27:13.221Z,4.40
2018-11-28T11:32:15.912Z,4.32
2018-11-28T11:37:18.547Z,4.26
2018-11-28T11:42:21.173Z,4.26
2018-11-28T11:47:23.817Z,4.35
2018-11-28T11:52:26.417Z,4.34
2018-11-28T11:57:29.035Z,4.35
2018-11-28T12:02:31.672Z,4.43
2018-11-28T12:07:34.345Z,4.76
2018-11-28T12:12:37.033Z,5.14
2018-11-28T12:17:39.624Z,5.33
2018-11-28T12:22:43.894Z,5.48
2018-11-28T12:27:46.530Z,5.54
2018-11-28T12:32:49.164Z,5.63
2018-11-28T12:37:52.633Z,5.62
2018-11-28T12:42:55.305Z,5.59
2018-11-28T12:47:58.020Z,5.43
2018-11-28T12:53:01.724Z,5.33
2018-11-28T12:58:07.036Z,5.37
2018-11-28T13:03:11.684Z,5.45
2018-11-28T13:08:14.374Z,5.70
2018-11-28T13:13:18.125Z,5.61
2018-11-28T13:18:20.032Z,5.44
2018-11-28T13:23:22.698Z,5.54
2018-11-28T13:28:25.292Z,5.71
2018-11-28T13:33:28.076Z,5.48
2018-11-28T13:38:30.717Z,5.44
2018-11-28T13:43:33.449Z,5.48
2018-11-28T13:48:36.131Z,5.43
2018-11-28T13:53:38.851Z,5.43
2018-11-28T13:58:41.480Z,5.46
2018-11-28T14:03:44.079Z,5.35
2018-11-28T14:08:46.729Z,5.30
2018-11-28T14:13:49.401Z,5.24
2018-11-28T14:18:52.130Z,5.11
2018-11-28T14:23:54.809Z,4.87
2018-11-28T14:28:57.451Z,4.77
2018-11-28T14:34:00.251Z,4.59
2018-11-28T14:39:04.102Z,4.52
2018-11-28T14:44:06.793Z,4.53
2018-11-28T14:49:09.511Z,4.46
2018-11-28T14:54:12.294Z,4.38
2018-11-28T14:59:14.923Z,4.29
2018-11-28T15:04:17.570Z,4.22
2018-11-28T15:09:26.952Z,4.19
2018-11-28T15:14:29.578Z,4.01
2018-11-28T15:19:32.276Z,3.95
2018-11-28T15:24:34.918Z,3.90
2018-11-28T15:29:37.796Z,3.86
2018-11-28T15:34:40.491Z,3.80
2018-11-28T15:39:43.111Z,3.76
2018-11-28T15:44:45.848Z,3.60
2018-11-28T15:49:48.528Z,3.60
2018-11-28T15:54:51.152Z,3.52
2018-11-28T15:59:54.012Z,3.50
2018-11-28T16:04:56.629Z,3.41
2018-11-28T16:10:05.008Z,3.36
2018-11-28T16:15:10.588Z,3.32
2018-11-28T16:20:13.285Z,3.30
2018-11-28T16:25:15.924Z,3.27
2018-11-28T16:30:18.556Z,3.24
2018-11-28T16:35:21.198Z,3.21
2018-11-28T16:40:23.898Z,3.16
2018-11-28T16:45:26.548Z,3.14
2018-11-28T16:50:29.164Z,3.07
2018-11-28T16:55:31.783Z,2.99
2018-11-28T17:00:35.524Z,2.94
2018-11-28T17:05:38.151Z,2.91
2018-11-28T17:10:40.827Z,2.94
2018-11-28T17:15:43.587Z,2.94
2018-11-28T17:20:46.050Z,2.93
2018-11-28T17:25:48.648Z,2.86
2018-11-28T17:30:51.405Z,2.85
2018-11-28T17:35:53.951Z,2.82
2018-11-28T17:40:56.651Z,2.73
2018-11-28T17:45:59.300Z,2.65
2018-11-28T17:51:01.970Z,2.60
2018-11-28T17:56:05.086Z,2.49
2018-11-28T18:01:07.864Z,2.49
2018-11-28T18:06:10.470Z,2.47
2018-11-28T18:11:14.605Z,2.40
2018-11-28T18:16:17.167Z,2.37
2018-11-28T18:21:19.797Z,2.21
2018-11-28T18:26:22.505Z,2.16
2018-11-28T18:31:25.402Z,2.14
2018-11-28T18:36:28.038Z,2.08
2018-11-28T18:41:30.940Z,1.99
2018-11-28T18:46:33.454Z,1.94
2018-11-28T18:51:36.032Z,1.86
2018-11-28T18:56:38.781Z,1.81
2018-11-28T19:01:41.681Z,1.76
2018-11-28T19:06:44.321Z,1.77
2018-11-28T19:11:46.985Z,1.83
2018-11-28T19:16:49.598Z,1.81
2018-11-28T19:21:52.236Z,1.79
2018-11-28T19:26:54.885Z,1.79
2018-11-28T19:31:57.481Z,1.72
2018-11-28T19:37:00.151Z,1.69
2018-11-28T19:42:02.770Z,1.63
2018-11-28T19:47:05.344Z,1.62
2018-11-28T19:52:08.015Z,1.59
2018-11-28T19:57:10.600Z,1.57
2018-11-28T20:02:13.207Z,1.55
2018-11-28T20:07:15.826Z,1.51
2018-11-28T20:12:19.238Z,1.49
2018-11-28T20:17:21.849Z,1.45
2018-11-28T20:22:24.517Z,1.43
2018-11-28T20:27:27.149Z,1.37
2018-11-28T20:32:30.471Z,1.33
2018-11-28T20:37:32.576Z,1.29
2018-11-28T20:42:35.230Z,1.25
2018-11-28T20:47:37.921Z,1.22
2018-11-28T20:52:42.633Z,1.21
2018-11-28T20:57:45.236Z,1.20
2018-11-28T21:02:47.985Z,1.20
2018-11-28T21:07:50.585Z,1.20
2018-11-28T21:12:53.509Z,1.21
2018-11-28T21:17:56.288Z,1.21
2018-11-28T21:23:02.054Z,1.20
2018-11-28T21:28:04.842Z,1.15
2018-11-28T21:33:09.106Z,1.16
2018-11-28T21:38:11.756Z,1.06
2018-11-28T21:43:14.381Z,1.05
2018-11-28T21:48:16.974Z,1.02
2018-11-28T21:53:19.474Z,1.02
2018-11-28T21:58:22.014Z,0.99
2018-11-28T22:03:24.640Z,0.97
2018-11-28T22:08:27.228Z,0.97
2018-11-28T22:13:29.923Z,0.98
2018-11-28T22:18:32.548Z,0.92
2018-11-28T22:23:35.111Z,0.89
2018-11-28T22:28:37.745Z,0.88
2018-11-28T22:33:40.402Z,0.89
2018-11-28T22:38:42.996Z,0.89
2018-11-28T22:43:45.597Z,0.88
2018-11-28T22:48:48.224Z,0.89
2018-11-28T22:53:50.869Z,0.88
2018-11-28T22:58:53.530Z,0.83
2018-11-28T23:03:56.228Z,0.79
2018-11-28T23:08:59.096Z,0.79
2018-11-28T23:14:01.716Z,0.75
2018-11-28T23:19:04.550Z,0.67
2018-11-28T23:24:07.147Z,0.68
2018-11-28T23:29:09.735Z,0.63
2018-11-28T23:34:12.426Z,0.62
2018-11-28T23:39:15.015Z,0.58
2018-11-28T23:44:17.621Z,0.52
2018-11-28T23:49:20.351Z,0.49
2018-11-28T23:54:22.945Z,0.46
2018-11-28T23:59:25.534Z,0.45
